sensor_id;sensor_type;location;lat;lon;timestamp;P1;durP1;ratioP1;P2;durP2;ratioP2
9256;SDS011;4665;51.368;6.782;2023-07-13T00:00:37;3.97;;;1.90;;
9256;SDS011;4665;51.368;6.782;2023-07-13T00:03:03;3.90;;;1.80;;
9256;SDS011;4665;51.368;6.782;2023-07-13T00:05:29;4.47;;;2.00;;
9256;SDS011;4665;51.368;6.782;2023-07-13T00:07:56;4.33;;;1.70;;
9256;SDS011;4665;51.368;6.782;2023-07-13T00:10:21;3.53;;;1.63;;
9256;SDS011;4665;51.368;6.782;2023-07-13T00:12:47;3.27;;;1.80;;
9256;SDS011;4665;51.368;6.782;2023-07-13T00:15:18;6.10;;;2.00;;
9256;SDS011;4665;51.368;6.782;2023-07-13T00:17:48;3.70;;;1.60;;
9256;SDS011;4665;51.368;6.782;2023-07-13T00:20:14;3.90;;;1.67;;
9256;SDS011;4665;51.368;6.782;2023-07-13T00:22:40;3.20;;;1.60;;
9256;SDS011;4665;51.368;6.782;2023-07-13T00:25:05;3.47;;;1.80;;
9256;SDS011;4665;51.368;6.782;2023-07-13T00:27:31;5.00;;;1.80;;
9256;SDS011;4665;51.368;6.782;2023-07-13T00:29:57;6.47;;;1.90;;
9256;SDS011;4665;51.368;6.782;2023-07-13T00:32:23;2.77;;;2.00;;
9256;SDS011;4665;51.368;6.782;2023-07-13T00:34:50;3.23;;;1.70;;
9256;SDS011;4665;51.368;6.782;2023-07-13T00:37:16;1.70;;;1.57;;
9256;SDS011;4665;51.368;6.782;2023-07-13T00:39:41;1.93;;;1.40;;
9256;SDS011;4665;51.368;6.782;2023-07-13T00:42:06;4.70;;;1.87;;
9256;SDS011;4665;51.368;6.782;2023-07-13T00:44:32;2.47;;;1.30;;
9256;SDS011;4665;51.368;6.782;2023-07-13T00:46:58;1.60;;;1.47;;
9256;SDS011;4665;51.368;6.782;2023-07-13T00:49:24;2.20;;;1.50;;
9256;SDS011;4665;51.368;6.782;2023-07-13T00:52:25;5.20;;;1.90;;
9256;SDS011;4665;51.368;6.782;2023-07-13T00:54:44;2.37;;;1.70;;
9256;SDS011;4665;51.368;6.782;2023-07-13T00:57:13;1.77;;;1.50;;
9256;SDS011;4665;51.368;6.782;2023-07-13T00:59:45;2.50;;;1.53;;
9256;SDS011;4665;51.368;6.782;2023-07-13T01:02:16;1.87;;;1.60;;
9256;SDS011;4665;51.368;6.782;2023-07-13T01:04:41;2.03;;;1.50;;
9256;SDS011;4665;51.368;6.782;2023-07-13T01:07:09;2.23;;;1.60;;
9256;SDS011;4665;51.368;6.782;2023-07-13T01:09:37;1.23;;;1.13;;
9256;SDS011;4665;51.368;6.782;2023-07-13T01:12:02;6.07;;;1.80;;
9256;SDS011;4665;51.368;6.782;2023-07-13T01:14:28;3.57;;;1.70;;
9256;SDS011;4665;51.368;6.782;2023-07-13T01:16:53;2.20;;;1.80;;
9256;SDS011;4665;51.368;6.782;2023-07-13T01:19:29;4.03;;;1.43;;
9256;SDS011;4665;51.368;6.782;2023-07-13T01:22:05;3.23;;;1.73;;
9256;SDS011;4665;51.368;6.782;2023-07-13T01:24:38;2.07;;;1.80;;
9256;SDS011;4665;51.368;6.782;2023-07-13T01:27:05;2.67;;;1.67;;
9256;SDS011;4665;51.368;6.782;2023-07-13T01:29:33;4.97;;;1.50;;
9256;SDS011;4665;51.368;6.782;2023-07-13T01:32:00;3.30;;;1.80;;
9256;SDS011;4665;51.368;6.782;2023-07-13T01:34:26;4.37;;;1.67;;
9256;SDS011;4665;51.368;6.782;2023-07-13T01:36:52;1.60;;;1.30;;
9256;SDS011;4665;51.368;6.782;2023-07-13T01:39:19;2.83;;;1.70;;
9256;SDS011;4665;51.368;6.782;2023-07-13T01:41:46;2.87;;;1.77;;
9256;SDS011;4665;51.368;6.782;2023-07-13T01:44:11;1.73;;;1.40;;
9256;SDS011;4665;51.368;6.782;2023-07-13T01:46:37;4.70;;;1.50;;
9256;SDS011;4665;51.368;6.782;2023-07-13T01:49:02;3.23;;;1.80;;
9256;SDS011;4665;51.368;6.782;2023-07-13T01:51:27;1.80;;;1.53;;
9256;SDS011;4665;51.368;6.782;2023-07-13T01:53:53;8.83;;;1.60;;
9256;SDS011;4665;51.368;6.782;2023-07-13T01:56:18;3.30;;;1.87;;
9256;SDS011;4665;51.368;6.782;2023-07-13T01:58:44;3.00;;;1.73;;
9256;SDS011;4665;51.368;6.782;2023-07-13T02:01:10;4.37;;;2.10;;
9256;SDS011;4665;51.368;6.782;2023-07-13T02:03:36;3.57;;;1.83;;
9256;SDS011;4665;51.368;6.782;2023-07-13T02:06:01;1.87;;;1.77;;
9256;SDS011;4665;51.368;6.782;2023-07-13T02:08:27;5.13;;;1.80;;
9256;SDS011;4665;51.368;6.782;2023-07-13T02:10:52;2.77;;;1.53;;
9256;SDS011;4665;51.368;6.782;2023-07-13T02:13:18;2.67;;;1.80;;
9256;SDS011;4665;51.368;6.782;2023-07-13T02:15:43;2.83;;;1.83;;
9256;SDS011;4665;51.368;6.782;2023-07-13T02:18:08;3.60;;;1.73;;
9256;SDS011;4665;51.368;6.782;2023-07-13T02:20:34;3.20;;;1.50;;
9256;SDS011;4665;51.368;6.782;2023-07-13T02:23:00;2.53;;;1.60;;
9256;SDS011;4665;51.368;6.782;2023-07-13T02:25:25;3.23;;;1.70;;
9256;SDS011;4665;51.368;6.782;2023-07-13T02:27:51;2.50;;;1.63;;
9256;SDS011;4665;51.368;6.782;2023-07-13T02:30:17;4.83;;;2.07;;
9256;SDS011;4665;51.368;6.782;2023-07-13T02:32:42;3.70;;;1.83;;
9256;SDS011;4665;51.368;6.782;2023-07-13T02:35:09;3.83;;;1.70;;
9256;SDS011;4665;51.368;6.782;2023-07-13T02:37:34;1.97;;;1.60;;
9256;SDS011;4665;51.368;6.782;2023-07-13T02:40:00;5.10;;;1.70;;
9256;SDS011;4665;51.368;6.782;2023-07-13T02:42:25;2.23;;;1.60;;
9256;SDS011;4665;51.368;6.782;2023-07-13T02:44:51;3.63;;;1.53;;
9256;SDS011;4665;51.368;6.782;2023-07-13T02:47:16;2.70;;;1.33;;
9256;SDS011;4665;51.368;6.782;2023-07-13T02:49:41;2.53;;;1.67;;
9256;SDS011;4665;51.368;6.782;2023-07-13T02:52:07;1.60;;;1.40;;
9256;SDS011;4665;51.368;6.782;2023-07-13T02:54:32;2.57;;;1.73;;
9256;SDS011;4665;51.368;6.782;2023-07-13T02:56:58;2.37;;;1.57;;
9256;SDS011;4665;51.368;6.782;2023-07-13T02:59:23;3.03;;;1.53;;
9256;SDS011;4665;51.368;6.782;2023-07-13T03:01:49;1.77;;;1.40;;
9256;SDS011;4665;51.368;6.782;2023-07-13T03:04:14;2.43;;;1.80;;
9256;SDS011;4665;51.368;6.782;2023-07-13T03:06:39;3.40;;;1.60;;
9256;SDS011;4665;51.368;6.782;2023-07-13T03:09:05;2.83;;;1.77;;
9256;SDS011;4665;51.368;6.782;2023-07-13T03:11:30;3.43;;;1.47;;
9256;SDS011;4665;51.368;6.782;2023-07-13T03:13:56;1.63;;;1.40;;
9256;SDS011;4665;51.368;6.782;2023-07-13T03:16:24;2.23;;;1.77;;
9256;SDS011;4665;51.368;6.782;2023-07-13T03:18:52;2.80;;;1.50;;
9256;SDS011;4665;51.368;6.782;2023-07-13T03:21:17;2.90;;;1.60;;
9256;SDS011;4665;51.368;6.782;2023-07-13T03:23:43;4.93;;;1.83;;
9256;SDS011;4665;51.368;6.782;2023-07-13T03:26:13;3.53;;;1.60;;
9256;SDS011;4665;51.368;6.782;2023-07-13T03:28:40;1.87;;;1.33;;
9256;SDS011;4665;51.368;6.782;2023-07-13T03:31:08;2.87;;;1.60;;
9256;SDS011;4665;51.368;6.782;2023-07-13T03:33:35;3.83;;;2.03;;
9256;SDS011;4665;51.368;6.782;2023-07-13T03:36:02;3.67;;;1.60;;
9256;SDS011;4665;51.368;6.782;2023-07-13T03:38:29;3.03;;;1.70;;
9256;SDS011;4665;51.368;6.782;2023-07-13T03:40:55;3.47;;;2.20;;
9256;SDS011;4665;51.368;6.782;2023-07-13T03:43:20;2.47;;;1.70;;
9256;SDS011;4665;51.368;6.782;2023-07-13T03:45:46;2.47;;;1.43;;
9256;SDS011;4665;51.368;6.782;2023-07-13T03:48:11;1.67;;;1.23;;
9256;SDS011;4665;51.368;6.782;2023-07-13T03:50:37;1.90;;;1.67;;
9256;SDS011;4665;51.368;6.782;2023-07-13T03:53:03;2.80;;;1.53;;
9256;SDS011;4665;51.368;6.782;2023-07-13T03:55:29;3.33;;;1.80;;
9256;SDS011;4665;51.368;6.782;2023-07-13T03:57:59;3.30;;;1.80;;
9256;SDS011;4665;51.368;6.782;2023-07-13T04:00:26;3.23;;;1.90;;
9256;SDS011;4665;51.368;6.782;2023-07-13T04:02:52;2.30;;;1.67;;
9256;SDS011;4665;51.368;6.782;2023-07-13T04:05:17;2.63;;;1.70;;
9256;SDS011;4665;51.368;6.782;2023-07-13T04:07:43;4.83;;;1.90;;
9256;SDS011;4665;51.368;6.782;2023-07-13T04:10:09;1.93;;;1.83;;
9256;SDS011;4665;51.368;6.782;2023-07-13T04:12:35;4.17;;;1.67;;
9256;SDS011;4665;51.368;6.782;2023-07-13T04:15:00;2.43;;;1.30;;
9256;SDS011;4665;51.368;6.782;2023-07-13T04:17:26;3.40;;;1.43;;
9256;SDS011;4665;51.368;6.782;2023-07-13T04:19:51;1.80;;;1.63;;
9256;SDS011;4665;51.368;6.782;2023-07-13T04:22:17;3.97;;;1.77;;
9256;SDS011;4665;51.368;6.782;2023-07-13T04:24:42;2.03;;;1.60;;
9256;SDS011;4665;51.368;6.782;2023-07-13T04:27:08;3.97;;;1.87;;
9256;SDS011;4665;51.368;6.782;2023-07-13T04:29:34;2.83;;;1.80;;
9256;SDS011;4665;51.368;6.782;2023-07-13T04:31:59;3.50;;;1.60;;
9256;SDS011;4665;51.368;6.782;2023-07-13T04:34:24;3.30;;;1.90;;
9256;SDS011;4665;51.368;6.782;2023-07-13T04:36:50;8.40;;;2.57;;
9256;SDS011;4665;51.368;6.782;2023-07-13T04:39:16;3.17;;;2.20;;
9256;SDS011;4665;51.368;6.782;2023-07-13T04:41:42;2.10;;;1.77;;
9256;SDS011;4665;51.368;6.782;2023-07-13T04:44:08;6.07;;;2.00;;
9256;SDS011;4665;51.368;6.782;2023-07-13T04:46:33;2.10;;;1.90;;
9256;SDS011;4665;51.368;6.782;2023-07-13T04:48:59;3.20;;;1.83;;
9256;SDS011;4665;51.368;6.782;2023-07-13T04:51:24;5.63;;;1.93;;
9256;SDS011;4665;51.368;6.782;2023-07-13T04:53:51;3.30;;;2.00;;
9256;SDS011;4665;51.368;6.782;2023-07-13T04:56:16;4.43;;;1.90;;
9256;SDS011;4665;51.368;6.782;2023-07-13T04:58:41;3.07;;;2.40;;
9256;SDS011;4665;51.368;6.782;2023-07-13T05:01:07;3.07;;;2.40;;
9256;SDS011;4665;51.368;6.782;2023-07-13T05:03:34;3.97;;;2.20;;
9256;SDS011;4665;51.368;6.782;2023-07-13T05:06:01;3.10;;;2.17;;
9256;SDS011;4665;51.368;6.782;2023-07-13T05:08:28;3.67;;;1.93;;
9256;SDS011;4665;51.368;6.782;2023-07-13T05:10:54;2.43;;;2.10;;
9256;SDS011;4665;51.368;6.782;2023-07-13T05:13:19;4.87;;;2.30;;
9256;SDS011;4665;51.368;6.782;2023-07-13T05:15:45;4.60;;;1.97;;
9256;SDS011;4665;51.368;6.782;2023-07-13T05:18:12;3.10;;;1.83;;
9256;SDS011;4665;51.368;6.782;2023-07-13T05:20:38;2.10;;;1.90;;
9256;SDS011;4665;51.368;6.782;2023-07-13T05:23:03;5.77;;;2.30;;
9256;SDS011;4665;51.368;6.782;2023-07-13T05:25:29;3.97;;;2.23;;
9256;SDS011;4665;51.368;6.782;2023-07-13T05:27:54;4.67;;;2.20;;
9256;SDS011;4665;51.368;6.782;2023-07-13T05:30:20;6.63;;;2.20;;
9256;SDS011;4665;51.368;6.782;2023-07-13T05:32:45;9.00;;;2.50;;
9256;SDS011;4665;51.368;6.782;2023-07-13T05:35:11;4.33;;;2.30;;
9256;SDS011;4665;51.368;6.782;2023-07-13T05:37:37;4.13;;;2.00;;
9256;SDS011;4665;51.368;6.782;2023-07-13T05:40:02;5.90;;;2.40;;
9256;SDS011;4665;51.368;6.782;2023-07-13T05:42:29;4.33;;;2.53;;
9256;SDS011;4665;51.368;6.782;2023-07-13T05:44:56;3.67;;;2.30;;
9256;SDS011;4665;51.368;6.782;2023-07-13T05:47:22;5.10;;;2.50;;
9256;SDS011;4665;51.368;6.782;2023-07-13T05:49:47;8.50;;;2.70;;
9256;SDS011;4665;51.368;6.782;2023-07-13T05:52:12;5.97;;;2.73;;
9256;SDS011;4665;51.368;6.782;2023-07-13T05:54:38;2.87;;;2.03;;
9256;SDS011;4665;51.368;6.782;2023-07-13T05:57:03;4.37;;;2.47;;
9256;SDS011;4665;51.368;6.782;2023-07-13T05:59:29;7.00;;;3.00;;
9256;SDS011;4665;51.368;6.782;2023-07-13T06:01:54;6.73;;;2.70;;
9256;SDS011;4665;51.368;6.782;2023-07-13T06:04:20;6.67;;;2.70;;
9256;SDS011;4665;51.368;6.782;2023-07-13T06:06:46;10.33;;;3.10;;
9256;SDS011;4665;51.368;6.782;2023-07-13T06:09:11;5.13;;;2.43;;
9256;SDS011;4665;51.368;6.782;2023-07-13T06:11:37;4.53;;;2.40;;
9256;SDS011;4665;51.368;6.782;2023-07-13T06:14:02;7.17;;;2.97;;
9256;SDS011;4665;51.368;6.782;2023-07-13T06:16:29;7.93;;;3.00;;
9256;SDS011;4665;51.368;6.782;2023-07-13T06:18:54;4.77;;;3.13;;
9256;SDS011;4665;51.368;6.782;2023-07-13T06:21:20;11.60;;;3.80;;
9256;SDS011;4665;51.368;6.782;2023-07-13T06:23:48;5.83;;;3.00;;
9256;SDS011;4665;51.368;6.782;2023-07-13T06:26:14;5.83;;;3.00;;
9256;SDS011;4665;51.368;6.782;2023-07-13T06:28:40;10.50;;;3.43;;
9256;SDS011;4665;51.368;6.782;2023-07-13T06:31:07;8.57;;;3.30;;
9256;SDS011;4665;51.368;6.782;2023-07-13T06:33:33;10.23;;;3.43;;
9256;SDS011;4665;51.368;6.782;2023-07-13T06:35:59;3.80;;;3.30;;
9256;SDS011;4665;51.368;6.782;2023-07-13T06:38:25;7.17;;;3.13;;
9256;SDS011;4665;51.368;6.782;2023-07-13T06:40:51;5.27;;;3.10;;
9256;SDS011;4665;51.368;6.782;2023-07-13T06:43:17;5.30;;;2.90;;
9256;SDS011;4665;51.368;6.782;2023-07-13T06:45:46;4.60;;;3.03;;
9256;SDS011;4665;51.368;6.782;2023-07-13T06:48:15;7.90;;;3.43;;
9256;SDS011;4665;51.368;6.782;2023-07-13T06:50:41;8.30;;;3.27;;
9256;SDS011;4665;51.368;6.782;2023-07-13T06:53:08;9.03;;;4.00;;
9256;SDS011;4665;51.368;6.782;2023-07-13T06:55:33;5.37;;;3.03;;
9256;SDS011;4665;51.368;6.782;2023-07-13T07:00:32;9.23;;;3.73;;
9256;SDS011;4665;51.368;6.782;2023-07-13T07:02:57;11.43;;;4.20;;
9256;SDS011;4665;51.368;6.782;2023-07-13T07:05:23;7.77;;;3.60;;
9256;SDS011;4665;51.368;6.782;2023-07-13T07:07:52;5.73;;;3.30;;
9256;SDS011;4665;51.368;6.782;2023-07-13T07:10:19;6.47;;;3.40;;
9256;SDS011;4665;51.368;6.782;2023-07-13T07:12:47;6.47;;;3.50;;
9256;SDS011;4665;51.368;6.782;2023-07-13T07:15:13;8.27;;;3.63;;
9256;SDS011;4665;51.368;6.782;2023-07-13T07:17:39;9.67;;;3.90;;
9256;SDS011;4665;51.368;6.782;2023-07-13T07:20:04;9.47;;;4.30;;
9256;SDS011;4665;51.368;6.782;2023-07-13T07:22:31;10.33;;;4.17;;
9256;SDS011;4665;51.368;6.782;2023-07-13T07:24:57;7.50;;;3.90;;
9256;SDS011;4665;51.368;6.782;2023-07-13T07:27:23;10.40;;;4.00;;
9256;SDS011;4665;51.368;6.782;2023-07-13T07:29:49;5.67;;;3.33;;
9256;SDS011;4665;51.368;6.782;2023-07-13T07:32:15;5.67;;;3.83;;
9256;SDS011;4665;51.368;6.782;2023-07-13T07:34:41;8.60;;;3.90;;
9256;SDS011;4665;51.368;6.782;2023-07-13T07:37:06;5.33;;;3.43;;
9256;SDS011;4665;51.368;6.782;2023-07-13T07:39:32;10.40;;;3.87;;
9256;SDS011;4665;51.368;6.782;2023-07-13T07:41:57;5.70;;;3.13;;
9256;SDS011;4665;51.368;6.782;2023-07-13T07:44:23;7.40;;;3.20;;
9256;SDS011;4665;51.368;6.782;2023-07-13T07:46:52;7.53;;;4.20;;
9256;SDS011;4665;51.368;6.782;2023-07-13T07:49:17;7.53;;;3.57;;
9256;SDS011;4665;51.368;6.782;2023-07-13T07:51:43;7.47;;;3.53;;
9256;SDS011;4665;51.368;6.782;2023-07-13T07:54:09;6.63;;;3.47;;
9256;SDS011;4665;51.368;6.782;2023-07-13T07:56:34;10.57;;;3.83;;
9256;SDS011;4665;51.368;6.782;2023-07-13T07:58:59;5.83;;;3.50;;
9256;SDS011;4665;51.368;6.782;2023-07-13T08:01:25;6.43;;;3.23;;
9256;SDS011;4665;51.368;6.782;2023-07-13T08:03:50;5.70;;;3.10;;
9256;SDS011;4665;51.368;6.782;2023-07-13T08:06:16;7.87;;;3.53;;
9256;SDS011;4665;51.368;6.782;2023-07-13T08:08:44;5.83;;;4.03;;
9256;SDS011;4665;51.368;6.782;2023-07-13T08:11:10;5.00;;;3.10;;
9256;SDS011;4665;51.368;6.782;2023-07-13T08:13:36;6.23;;;3.53;;
9256;SDS011;4665;51.368;6.782;2023-07-13T08:16:03;5.50;;;3.43;;
9256;SDS011;4665;51.368;6.782;2023-07-13T08:18:30;7.70;;;3.67;;
9256;SDS011;4665;51.368;6.782;2023-07-13T08:20:55;8.40;;;3.53;;
9256;SDS011;4665;51.368;6.782;2023-07-13T08:23:24;6.90;;;3.63;;
9256;SDS011;4665;51.368;6.782;2023-07-13T08:25:51;7.27;;;4.03;;
9256;SDS011;4665;51.368;6.782;2023-07-13T08:28:18;6.00;;;3.37;;
9256;SDS011;4665;51.368;6.782;2023-07-13T08:30:47;5.57;;;3.07;;
9256;SDS011;4665;51.368;6.782;2023-07-13T08:33:19;9.23;;;3.10;;
9256;SDS011;4665;51.368;6.782;2023-07-13T08:35:46;7.67;;;3.30;;
9256;SDS011;4665;51.368;6.782;2023-07-13T08:38:12;6.73;;;3.10;;
9256;SDS011;4665;51.368;6.782;2023-07-13T08:40:38;6.13;;;3.10;;
9256;SDS011;4665;51.368;6.782;2023-07-13T08:43:04;5.87;;;2.90;;
9256;SDS011;4665;51.368;6.782;2023-07-13T08:45:44;5.37;;;3.03;;
9256;SDS011;4665;51.368;6.782;2023-07-13T08:48:21;4.73;;;2.77;;
9256;SDS011;4665;51.368;6.782;2023-07-13T08:50:54;5.67;;;2.73;;
9256;SDS011;4665;51.368;6.782;2023-07-13T08:53:36;7.13;;;3.57;;
9256;SDS011;4665;51.368;6.782;2023-07-13T08:56:07;5.93;;;2.87;;
9256;SDS011;4665;51.368;6.782;2023-07-13T08:58:38;6.67;;;2.77;;
9256;SDS011;4665;51.368;6.782;2023-07-13T09:12:03;6.33;;;3.60;;
9256;SDS011;4665;51.368;6.782;2023-07-13T09:17:12;4.83;;;3.00;;
9256;SDS011;4665;51.368;6.782;2023-07-13T09:19:43;6.87;;;3.40;;
9256;SDS011;4665;51.368;6.782;2023-07-13T09:22:13;7.83;;;3.27;;
9256;SDS011;4665;51.368;6.782;2023-07-13T09:27:22;6.23;;;2.93;;
9256;SDS011;4665;51.368;6.782;2023-07-13T09:29:57;9.63;;;3.63;;
9256;SDS011;4665;51.368;6.782;2023-07-13T09:32:47;9.47;;;3.60;;
9256;SDS011;4665;51.368;6.782;2023-07-13T09:35:17;7.80;;;3.03;;
9256;SDS011;4665;51.368;6.782;2023-07-13T09:37:46;6.13;;;3.20;;
9256;SDS011;4665;51.368;6.782;2023-07-13T09:40:23;7.67;;;3.50;;
9256;SDS011;4665;51.368;6.782;2023-07-13T09:42:58;7.83;;;3.70;;
9256;SDS011;4665;51.368;6.782;2023-07-13T09:45:27;4.47;;;3.13;;
9256;SDS011;4665;51.368;6.782;2023-07-13T09:48:04;5.17;;;3.53;;
9256;SDS011;4665;51.368;6.782;2023-07-13T09:50:40;6.40;;;3.50;;
9256;SDS011;4665;51.368;6.782;2023-07-13T09:55:40;8.53;;;3.60;;
9256;SDS011;4665;51.368;6.782;2023-07-13T10:00:41;5.93;;;3.20;;
9256;SDS011;4665;51.368;6.782;2023-07-13T10:03:26;6.80;;;3.20;;
9256;SDS011;4665;51.368;6.782;2023-07-13T10:05:53;5.13;;;2.40;;
9256;SDS011;4665;51.368;6.782;2023-07-13T10:08:29;6.63;;;3.17;;
9256;SDS011;4665;51.368;6.782;2023-07-13T10:11:01;6.00;;;3.10;;
9256;SDS011;4665;51.368;6.782;2023-07-13T10:13:36;4.83;;;3.00;;
9256;SDS011;4665;51.368;6.782;2023-07-13T10:16:06;5.93;;;3.57;;
9256;SDS011;4665;51.368;6.782;2023-07-13T10:18:39;7.87;;;3.00;;
9256;SDS011;4665;51.368;6.782;2023-07-13T10:21:16;5.43;;;3.00;;
9256;SDS011;4665;51.368;6.782;2023-07-13T10:23:44;7.10;;;3.00;;
9256;SDS011;4665;51.368;6.782;2023-07-13T10:26:20;7.10;;;2.77;;
9256;SDS011;4665;51.368;6.782;2023-07-13T10:28:51;6.40;;;2.60;;
9256;SDS011;4665;51.368;6.782;2023-07-13T10:31:20;4.23;;;2.83;;
9256;SDS011;4665;51.368;6.782;2023-07-13T10:33:46;3.90;;;2.67;;
9256;SDS011;4665;51.368;6.782;2023-07-13T10:38:49;4.77;;;2.80;;
9256;SDS011;4665;51.368;6.782;2023-07-13T10:41:19;5.27;;;2.87;;
9256;SDS011;4665;51.368;6.782;2023-07-13T10:43:48;6.07;;;2.83;;
9256;SDS011;4665;51.368;6.782;2023-07-13T10:46:19;4.87;;;2.70;;
9256;SDS011;4665;51.368;6.782;2023-07-13T10:48:49;5.63;;;2.50;;
9256;SDS011;4665;51.368;6.782;2023-07-13T10:51:18;4.50;;;2.60;;
9256;SDS011;4665;51.368;6.782;2023-07-13T10:53:47;6.53;;;3.20;;
9256;SDS011;4665;51.368;6.782;2023-07-13T10:56:33;7.07;;;2.80;;
9256;SDS011;4665;51.368;6.782;2023-07-13T10:59:02;5.67;;;3.10;;
9256;SDS011;4665;51.368;6.782;2023-07-13T11:02:21;5.00;;;2.90;;
9256;SDS011;4665;51.368;6.782;2023-07-13T11:04:45;3.23;;;2.50;;
9256;SDS011;4665;51.368;6.782;2023-07-13T11:07:23;4.53;;;2.90;;
9256;SDS011;4665;51.368;6.782;2023-07-13T11:09:53;5.60;;;2.83;;
9256;SDS011;4665;51.368;6.782;2023-07-13T11:25:35;3.70;;;2.63;;
9256;SDS011;4665;51.368;6.782;2023-07-13T11:33:24;2.53;;;2.17;;
9256;SDS011;4665;51.368;6.782;2023-07-13T11:38:28;4.30;;;2.50;;
9256;SDS011;4665;51.368;6.782;2023-07-13T11:40:58;4.33;;;2.43;;
9256;SDS011;4665;51.368;6.782;2023-07-13T11:43:32;7.27;;;2.47;;
9256;SDS011;4665;51.368;6.782;2023-07-13T11:46:11;3.93;;;2.10;;
9256;SDS011;4665;51.368;6.782;2023-07-13T11:48:37;3.30;;;2.10;;
9256;SDS011;4665;51.368;6.782;2023-07-13T11:51:04;7.60;;;2.50;;
9256;SDS011;4665;51.368;6.782;2023-07-13T11:53:36;3.37;;;2.30;;
9256;SDS011;4665;51.368;6.782;2023-07-13T11:56:05;5.53;;;2.37;;
9256;SDS011;4665;51.368;6.782;2023-07-13T11:58:31;2.97;;;2.17;;
9256;SDS011;4665;51.368;6.782;2023-07-13T12:00:58;5.20;;;2.27;;
9256;SDS011;4665;51.368;6.782;2023-07-13T12:03:26;3.10;;;2.10;;
9256;SDS011;4665;51.368;6.782;2023-07-13T12:06:04;2.33;;;1.93;;
9256;SDS011;4665;51.368;6.782;2023-07-13T12:08:31;2.57;;;2.03;;
9256;SDS011;4665;51.368;6.782;2023-07-13T12:11:09;3.67;;;2.30;;
9256;SDS011;4665;51.368;6.782;2023-07-13T12:13:40;2.23;;;2.03;;
9256;SDS011;4665;51.368;6.782;2023-07-13T12:16:14;2.53;;;2.03;;
9256;SDS011;4665;51.368;6.782;2023-07-13T12:18:42;2.10;;;1.73;;
9256;SDS011;4665;51.368;6.782;2023-07-13T12:21:13;4.27;;;2.00;;
9256;SDS011;4665;51.368;6.782;2023-07-13T12:23:43;3.20;;;2.30;;
9256;SDS011;4665;51.368;6.782;2023-07-13T12:26:09;2.80;;;1.70;;
9256;SDS011;4665;51.368;6.782;2023-07-13T12:31:22;3.07;;;1.83;;
9256;SDS011;4665;51.368;6.782;2023-07-13T12:34:03;4.20;;;1.87;;
9256;SDS011;4665;51.368;6.782;2023-07-13T12:36:35;3.97;;;1.90;;
9256;SDS011;4665;51.368;6.782;2023-07-13T12:39:16;4.03;;;2.27;;
9256;SDS011;4665;51.368;6.782;2023-07-13T12:42:19;4.70;;;1.60;;
9256;SDS011;4665;51.368;6.782;2023-07-13T12:44:49;2.33;;;2.00;;
9256;SDS011;4665;51.368;6.782;2023-07-13T12:47:15;4.33;;;2.10;;
9256;SDS011;4665;51.368;6.782;2023-07-13T12:49:42;3.63;;;2.10;;
9256;SDS011;4665;51.368;6.782;2023-07-13T12:52:17;3.90;;;2.13;;
9256;SDS011;4665;51.368;6.782;2023-07-13T12:54:52;4.67;;;2.10;;
9256;SDS011;4665;51.368;6.782;2023-07-13T12:57:24;5.87;;;2.10;;
9256;SDS011;4665;51.368;6.782;2023-07-13T12:59:54;6.77;;;2.20;;
9256;SDS011;4665;51.368;6.782;2023-07-13T13:02:30;3.23;;;2.20;;
9256;SDS011;4665;51.368;6.782;2023-07-13T13:04:59;5.03;;;2.00;;
9256;SDS011;4665;51.368;6.782;2023-07-13T13:07:26;2.93;;;2.27;;
9256;SDS011;4665;51.368;6.782;2023-07-13T13:09:52;2.50;;;1.80;;
9256;SDS011;4665;51.368;6.782;2023-07-13T13:12:19;2.60;;;2.00;;
9256;SDS011;4665;51.368;6.782;2023-07-13T13:14:45;3.87;;;2.30;;
9256;SDS011;4665;51.368;6.782;2023-07-13T13:17:16;4.47;;;2.53;;
9256;SDS011;4665;51.368;6.782;2023-07-13T13:19:54;5.83;;;2.70;;
9256;SDS011;4665;51.368;6.782;2023-07-13T13:22:21;2.63;;;2.30;;
9256;SDS011;4665;51.368;6.782;2023-07-13T13:24:46;2.17;;;1.90;;
9256;SDS011;4665;51.368;6.782;2023-07-13T13:27:16;2.63;;;2.07;;
9256;SDS011;4665;51.368;6.782;2023-07-13T13:29:47;4.50;;;2.03;;
9256;SDS011;4665;51.368;6.782;2023-07-13T13:32:16;3.17;;;2.10;;
9256;SDS011;4665;51.368;6.782;2023-07-13T13:34:42;2.33;;;2.13;;
9256;SDS011;4665;51.368;6.782;2023-07-13T13:39:43;3.47;;;1.80;;
9256;SDS011;4665;51.368;6.782;2023-07-13T13:42:09;3.27;;;2.10;;
9256;SDS011;4665;51.368;6.782;2023-07-13T13:44:35;6.90;;;2.50;;
9256;SDS011;4665;51.368;6.782;2023-07-13T13:47:00;2.30;;;2.10;;
9256;SDS011;4665;51.368;6.782;2023-07-13T13:49:27;6.20;;;2.10;;
9256;SDS011;4665;51.368;6.782;2023-07-13T13:51:55;5.47;;;2.10;;
9256;SDS011;4665;51.368;6.782;2023-07-13T13:54:21;4.67;;;2.53;;
9256;SDS011;4665;51.368;6.782;2023-07-13T13:56:48;5.50;;;2.20;;
9256;SDS011;4665;51.368;6.782;2023-07-13T13:59:15;5.93;;;1.87;;
9256;SDS011;4665;51.368;6.782;2023-07-13T14:01:42;2.97;;;1.83;;
9256;SDS011;4665;51.368;6.782;2023-07-13T14:04:19;1.90;;;1.50;;
9256;SDS011;4665;51.368;6.782;2023-07-13T14:06:46;3.57;;;1.83;;
9256;SDS011;4665;51.368;6.782;2023-07-13T14:09:14;2.17;;;1.87;;
9256;SDS011;4665;51.368;6.782;2023-07-13T14:11:41;4.50;;;1.63;;
9256;SDS011;4665;51.368;6.782;2023-07-13T14:14:08;5.13;;;2.00;;
9256;SDS011;4665;51.368;6.782;2023-07-13T14:16:39;3.43;;;1.90;;
9256;SDS011;4665;51.368;6.782;2023-07-13T14:19:08;5.70;;;1.60;;
9256;SDS011;4665;51.368;6.782;2023-07-13T14:21:37;3.97;;;2.00;;
9256;SDS011;4665;51.368;6.782;2023-07-13T14:24:02;3.27;;;2.20;;
9256;SDS011;4665;51.368;6.782;2023-07-13T14:26:29;3.10;;;2.10;;
9256;SDS011;4665;51.368;6.782;2023-07-13T14:29:00;3.03;;;2.00;;
9256;SDS011;4665;51.368;6.782;2023-07-13T14:31:26;2.23;;;2.03;;
9256;SDS011;4665;51.368;6.782;2023-07-13T14:33:54;4.97;;;2.00;;
9256;SDS011;4665;51.368;6.782;2023-07-13T14:38:54;5.33;;;2.40;;
9256;SDS011;4665;51.368;6.782;2023-07-13T14:41:20;3.23;;;2.73;;
9256;SDS011;4665;51.368;6.782;2023-07-13T14:43:46;5.13;;;2.60;;
9256;SDS011;4665;51.368;6.782;2023-07-13T14:46:33;4.93;;;2.97;;
9256;SDS011;4665;51.368;6.782;2023-07-13T14:51:30;4.33;;;2.80;;
9256;SDS011;4665;51.368;6.782;2023-07-13T14:53:58;4.40;;;2.67;;
9256;SDS011;4665;51.368;6.782;2023-07-13T14:56:27;5.10;;;2.70;;
9256;SDS011;4665;51.368;6.782;2023-07-13T14:58:52;3.37;;;2.40;;
9256;SDS011;4665;51.368;6.782;2023-07-13T15:01:18;5.47;;;2.90;;
9256;SDS011;4665;51.368;6.782;2023-07-13T15:03:46;4.57;;;2.67;;
9256;SDS011;4665;51.368;6.782;2023-07-13T15:06:14;5.50;;;3.03;;
9256;SDS011;4665;51.368;6.782;2023-07-13T15:08:40;11.03;;;4.10;;
9256;SDS011;4665;51.368;6.782;2023-07-13T15:11:06;7.20;;;3.87;;
9256;SDS011;4665;51.368;6.782;2023-07-13T15:13:32;7.23;;;3.80;;
9256;SDS011;4665;51.368;6.782;2023-07-13T15:15:59;8.43;;;4.20;;
9256;SDS011;4665;51.368;6.782;2023-07-13T15:18:26;8.97;;;3.23;;
9256;SDS011;4665;51.368;6.782;2023-07-13T15:20:52;7.47;;;2.60;;
9256;SDS011;4665;51.368;6.782;2023-07-13T15:23:21;4.87;;;2.43;;
9256;SDS011;4665;51.368;6.782;2023-07-13T15:25:47;5.57;;;2.87;;
9256;SDS011;4665;51.368;6.782;2023-07-13T15:28:14;6.80;;;2.70;;
9256;SDS011;4665;51.368;6.782;2023-07-13T15:30:41;6.77;;;2.90;;
9256;SDS011;4665;51.368;6.782;2023-07-13T15:33:10;3.43;;;2.60;;
9256;SDS011;4665;51.368;6.782;2023-07-13T15:35:36;2.13;;;2.00;;
9256;SDS011;4665;51.368;6.782;2023-07-13T15:38:09;2.43;;;2.30;;
9256;SDS011;4665;51.368;6.782;2023-07-13T15:40:38;5.93;;;3.70;;
9256;SDS011;4665;51.368;6.782;2023-07-13T15:43:09;7.17;;;4.10;;
9256;SDS011;4665;51.368;6.782;2023-07-13T15:45:36;8.30;;;5.83;;
9256;SDS011;4665;51.368;6.782;2023-07-13T15:48:08;7.83;;;5.20;;
9256;SDS011;4665;51.368;6.782;2023-07-13T15:50:41;3.87;;;3.50;;
9256;SDS011;4665;51.368;6.782;2023-07-13T15:53:13;5.40;;;3.70;;
9256;SDS011;4665;51.368;6.782;2023-07-13T15:55:40;4.73;;;2.70;;
9256;SDS011;4665;51.368;6.782;2023-07-13T15:58:08;4.60;;;3.10;;
9256;SDS011;4665;51.368;6.782;2023-07-13T16:00:36;3.93;;;2.87;;
9256;SDS011;4665;51.368;6.782;2023-07-13T16:03:02;4.23;;;2.23;;
9256;SDS011;4665;51.368;6.782;2023-07-13T16:05:27;3.07;;;2.70;;
9256;SDS011;4665;51.368;6.782;2023-07-13T16:07:53;5.27;;;3.03;;
9256;SDS011;4665;51.368;6.782;2023-07-13T16:10:20;4.77;;;2.60;;
9256;SDS011;4665;51.368;6.782;2023-07-13T16:12:49;4.27;;;2.40;;
9256;SDS011;4665;51.368;6.782;2023-07-13T16:15:16;2.47;;;2.30;;
9256;SDS011;4665;51.368;6.782;2023-07-13T16:17:44;3.77;;;2.93;;